Time;durP1;ratioP1;P1;durP2;ratioP2;P2;SDS_P1;SDS_P2;PMS_P1;PMS_P2;Temp;Humidity;BMP_temperature;BMP_pressure;BME280_temperature;BME280_humidity;BME280_pressure;Samples;Min_cycle;Max_cycle;Signal;HPM_P1;HPM_P2
2021/12/09 00:02:16;;;;;;;7.30;2.10;;;4.00;80.20;;;;;;5026103;28;20037;-79
2021/12/09 00:04:42;;;;;;;4.93;2.45;;;4.00;80.20;;;;;;5033350;28;20017;-79
2021/12/09 00:07:08;;;;;;;3.17;1.63;;;4.00;80.30;;;;;;5033563;28;20025;-79
2021/12/09 00:09:34;;;;;;;4.70;1.67;;;3.90;80.20;;;;;;5033451;28;20480;-79
2021/12/09 00:11:59;;;;;;;2.50;1.85;;;3.80;80.50;;;;;;5032436;28;20098;-79
2021/12/09 00:14:34;;;;;;;3.45;1.98;;;3.80;80.60;;;;;;5014981;28;20488;-80
2021/12/09 00:17:05;;;;;;;4.22;1.70;;;3.80;80.80;;;;;;5013346;28;20034;-79
2021/12/09 00:19:35;;;;;;;5.57;1.98;;;3.80;80.70;;;;;;5030795;28;20029;-79
2021/12/09 00:22:02;;;;;;;2.70;1.90;;;3.80;80.50;;;;;;5034199;28;20034;-79
2021/12/09 00:24:28;;;;;;;2.08;1.88;;;3.80;80.80;;;;;;5019182;28;20074;-79
2021/12/09 00:26:54;;;;;;;5.00;2.10;;;3.80;80.70;;;;;;5028609;28;20188;-79
2021/12/09 00:29:20;;;;;;;4.22;1.67;;;3.80;80.50;;;;;;5037370;28;20076;-79
2021/12/09 00:31:48;;;;;;;6.70;2.00;;;3.90;80.70;;;;;;5036995;28;20037;-79
2021/12/09 00:34:14;;;;;;;3.92;1.80;;;3.90;80.50;;;;;;5028142;28;20026;-79
2021/12/09 00:36:55;;;;;;;3.33;1.83;;;3.80;80.20;;;;;;5018423;28;20033;-80
2021/12/09 00:39:22;;;;;;;3.95;2.22;;;3.80;80.40;;;;;;5018891;28;20018;-79
2021/12/09 00:41:48;;;;;;;5.15;2.25;;;3.90;80.30;;;;;;5017305;28;20057;-79
2021/12/09 00:44:14;;;;;;;3.67;2.03;;;3.80;80.40;;;;;;5017879;28;20034;-79
2021/12/09 00:46:39;;;;;;;7.22;2.33;;;3.90;80.50;;;;;;5056100;28;20056;-79
2021/12/09 00:49:06;;;;;;;3.50;1.95;;;3.80;80.60;;;;;;5035055;28;20033;-79
2021/12/09 00:51:31;;;;;;;5.28;1.85;;;3.80;80.80;;;;;;5016835;28;20141;-79
2021/12/09 00:53:59;;;;;;;3.65;1.63;;;3.80;80.70;;;;;;5018184;28;20115;-79
2021/12/09 00:56:25;;;;;;;5.95;1.95;;;3.80;80.70;;;;;;5018260;28;20042;-79
2021/12/09 00:58:51;;;;;;;2.15;1.58;;;3.80;80.40;;;;;;5018315;28;20184;-79
2021/12/09 01:01:17;;;;;;;2.17;1.70;;;3.80;80.70;;;;;;5027494;28;20150;-79
2021/12/09 01:03:43;;;;;;;5.32;2.17;;;3.80;80.90;;;;;;5036371;28;20056;-80
2021/12/09 01:06:11;;;;;;;1.60;1.50;;;3.80;80.80;;;;;;5036662;28;20022;-79
2021/12/09 01:08:38;;;;;;;3.95;1.65;;;3.80;80.80;;;;;;5021950;28;20113;-79
2021/12/09 01:11:05;;;;;;;2.53;1.90;;;3.80;80.60;;;;;;5016586;28;20034;-80
2021/12/09 01:13:30;;;;;;;3.10;1.35;;;3.90;80.60;;;;;;5018297;28;20103;-79
2021/12/09 01:15:57;;;;;;;3.28;1.75;;;3.90;80.50;;;;;;5016732;28;20033;-80
2021/12/09 01:18:23;;;;;;;5.97;1.95;;;3.90;80.40;;;;;;5019303;28;20036;-79
2021/12/09 01:20:49;;;;;;;3.13;1.70;;;3.80;80.30;;;;;;5017818;28;20034;-80
2021/12/09 01:23:15;;;;;;;9.30;2.05;;;3.80;80.40;;;;;;5016617;28;20015;-80
2021/12/09 01:25:41;;;;;;;3.08;1.67;;;3.80;80.50;;;;;;5016945;28;20033;-79
2021/12/09 01:28:18;;;;;;;4.07;1.95;;;3.80;80.60;;;;;;5032255;28;20057;-79
2021/12/09 01:30:45;;;;;;;4.35;1.45;;;3.70;80.80;;;;;;5017690;28;20558;-80
2021/12/09 01:33:11;;;;;;;2.47;1.60;;;3.70;80.80;;;;;;5017814;28;20048;-80
2021/12/09 01:35:38;;;;;;;4.38;2.00;;;3.70;80.80;;;;;;5016467;28;20468;-80
2021/12/09 01:38:11;;;;;;;2.08;1.45;;;3.70;80.70;;;;;;5017597;28;20022;-80
2021/12/09 01:40:38;;;;;;;4.90;1.67;;;3.80;80.60;;;;;;5017735;28;20539;-80
2021/12/09 01:43:04;;;;;;;3.70;1.88;;;3.70;80.60;;;;;;5016449;28;20072;-80
2021/12/09 01:45:30;;;;;;;3.42;1.70;;;3.70;80.70;;;;;;5035981;28;20056;-80
2021/12/09 01:47:56;;;;;;;6.68;2.17;;;3.70;80.80;;;;;;5057551;28;20037;-80
2021/12/09 01:50:22;;;;;;;3.85;2.10;;;3.70;80.90;;;;;;5055744;28;20464;-80
2021/12/09 01:52:48;;;;;;;2.20;2.00;;;3.70;80.70;;;;;;5034308;28;20503;-80
2021/12/09 01:55:15;;;;;;;3.42;2.08;;;3.70;80.80;;;;;;5016114;28;20061;-80
2021/12/09 01:57:42;;;;;;;9.10;1.92;;;3.70;80.80;;;;;;5015956;28;20044;-80
2021/12/09 02:00:13;;;;;;;3.30;1.77;;;3.60;80.70;;;;;;5016968;28;20040;-80
2021/12/09 02:02:41;;;;;;;4.03;1.83;;;3.60;80.70;;;;;;5029057;28;20057;-80
2021/12/09 02:05:08;;;;;;;8.73;2.15;;;3.70;80.80;;;;;;5033385;28;20052;-79
2021/12/09 02:07:39;;;;;;;6.47;2.17;;;3.60;81.00;;;;;;5017109;28;20546;-80
2021/12/09 02:10:10;;;;;;;2.47;1.90;;;3.60;81.00;;;;;;5017164;28;20113;-80
2021/12/09 02:12:36;;;;;;;5.13;2.20;;;3.60;80.90;;;;;;5017130;28;20392;-80
2021/12/09 02:15:03;;;;;;;3.83;1.70;;;3.50;81.00;;;;;;5015975;28;20042;-80
2021/12/09 02:17:31;;;;;;;4.55;2.00;;;3.50;81.20;;;;;;5015514;28;20028;-80
2021/12/09 02:19:59;;;;;;;5.72;2.13;;;3.50;80.90;;;;;;5016820;28;20054;-80
2021/12/09 02:22:27;;;;;;;3.30;1.67;;;3.50;81.00;;;;;;5016834;28;20101;-80
2021/12/09 02:24:54;;;;;;;7.68;2.30;;;3.50;80.90;;;;;;5022927;28;20511;-80
2021/12/09 02:27:20;;;;;;;2.00;1.63;;;3.50;80.80;;;;;;5036722;28;20112;-80
2021/12/09 02:29:46;;;;;;;4.18;2.45;;;3.50;80.80;;;;;;5034914;28;20061;-80
2021/12/09 02:32:11;;;;;;;5.72;2.15;;;3.40;80.90;;;;;;5029293;28;20038;-80
2021/12/09 02:34:37;;;;;;;7.15;2.38;;;3.40;81.00;;;;;;5016191;28;20594;-80
2021/12/09 02:37:04;;;;;;;7.60;1.90;;;3.30;80.90;;;;;;5016986;28;20036;-80
2021/12/09 02:39:30;;;;;;;7.80;2.78;;;3.20;80.80;;;;;;5015286;28;20026;-80
2021/12/09 02:41:58;;;;;;;3.78;2.15;;;3.30;81.20;;;;;;5016459;28;20022;-80
2021/12/09 02:44:24;;;;;;;6.65;2.35;;;3.30;80.90;;;;;;5019536;28;20057;-81
2021/12/09 02:46:54;;;;;;;5.10;2.10;;;3.30;81.30;;;;;;5056143;28;20053;-80
2021/12/09 02:49:21;;;;;;;;;;;3.20;81.30;;;;;;5055415;28;20092;-80
2021/12/09 02:51:48;;;;;;;2.40;1.63;;;3.20;81.60;;;;;;5055751;28;19915;-80
2021/12/09 02:54:17;;;;;;;2.40;1.85;;;3.30;81.40;;;;;;5046740;28;20026;-80
2021/12/09 02:56:44;;;;;;;3.92;1.90;;;3.30;81.30;;;;;;5014791;28;20080;-80
2021/12/09 02:59:13;;;;;;;11.90;3.13;;;3.20;81.10;;;;;;5016151;28;20038;-80
2021/12/09 03:01:51;;;;;;;6.82;2.05;;;3.20;81.40;;;;;;5018849;28;20029;-80
2021/12/09 03:04:16;;;;;;;4.45;1.90;;;3.20;81.40;;;;;;5034549;28;20029;-80
2021/12/09 03:06:44;;;;;;;2.28;1.88;;;3.30;81.50;;;;;;5030907;28;20080;-80
2021/12/09 03:09:15;;;;;;;2.28;1.88;;;3.20;81.40;;;;;;5031258;28;20499;-80
2021/12/09 03:11:44;;;;;;;3.03;2.05;;;3.30;81.20;;;;;;5016287;28;20029;-80
2021/12/09 03:14:11;;;;;;;7.72;2.00;;;3.30;81.30;;;;;;5016318;28;20037;-80
2021/12/09 03:16:39;;;;;;;4.43;1.95;;;3.30;81.40;;;;;;5015002;28;20495;-80
2021/12/09 03:19:07;;;;;;;3.03;1.80;;;3.40;81.10;;;;;;5016361;28;20030;-80
2021/12/09 03:21:39;;;;;;;1.67;1.52;;;3.40;81.10;;;;;;5015001;28;20061;-80
2021/12/09 03:24:08;;;;;;;5.25;2.00;;;3.30;81.30;;;;;;5015892;28;20108;-80
2021/12/09 03:26:38;;;;;;;4.97;1.58;;;3.30;81.30;;;;;;5015789;28;20078;-80
2021/12/09 03:29:08;;;;;;;1.85;1.60;;;3.40;81.50;;;;;;5015547;28;20026;-79
2021/12/09 03:31:37;;;;;;;8.00;1.90;;;3.40;81.30;;;;;;5015595;28;20033;-80
2021/12/09 03:34:03;;;;;;;4.25;1.75;;;3.40;81.30;;;;;;5015840;28;20038;-80
2021/12/09 03:36:29;;;;;;;3.10;1.95;;;3.50;81.10;;;;;;5014332;28;20038;-80
2021/12/09 03:39:00;;;;;;;2.85;1.80;;;3.50;81.30;;;;;;5015370;28;20025;-80
2021/12/09 03:41:26;;;;;;;3.15;1.85;;;3.50;81.20;;;;;;5015200;28;20029;-80
2021/12/09 03:43:52;;;;;;;3.90;2.08;;;3.50;81.10;;;;;;5015432;28;20022;-80
2021/12/09 03:46:18;;;;;;;4.60;2.33;;;3.40;81.20;;;;;;5045365;28;20419;-80
2021/12/09 03:48:44;;;;;;;4.72;1.98;;;3.40;81.30;;;;;;5054992;28;20036;-79
2021/12/09 03:51:10;;;;;;;8.43;2.38;;;3.40;81.30;;;;;;5043792;28;20053;-80
2021/12/09 03:53:36;;;;;;;3.55;1.83;;;3.40;81.30;;;;;;5015344;28;20028;-80
2021/12/09 03:56:02;;;;;;;3.58;1.98;;;3.40;81.30;;;;;;5013758;28;20540;-80
2021/12/09 03:58:28;;;;;;;4.55;1.52;;;3.50;81.30;;;;;;5013917;28;20022;-80
2021/12/09 04:00:53;;;;;;;11.82;2.15;;;3.50;81.20;;;;;;5016396;28;20040;-80
2021/12/09 04:03:19;;;;;;;4.40;1.83;;;3.50;81.20;;;;;;5031657;28;20053;-80
2021/12/09 04:05:47;;;;;;;1.55;1.30;;;3.40;81.10;;;;;;5029352;28;20443;-81
2021/12/09 04:08:12;;;;;;;6.47;2.03;;;3.50;81.10;;;;;;5015260;28;20022;-80
2021/12/09 04:10:38;;;;;;;8.48;2.83;;;3.40;81.00;;;;;;5014149;28;20028;-80
2021/12/09 04:13:07;;;;;;;6.95;2.05;;;3.50;80.90;;;;;;5015386;28;20030;-80
2021/12/09 04:15:33;;;;;;;3.58;1.83;;;3.50;81.20;;;;;;5015375;28;20034;-80
2021/12/09 04:17:58;;;;;;;4.03;1.90;;;3.50;81.30;;;;;;5015017;28;20087;-80
2021/12/09 04:20:25;;;;;;;3.58;1.75;;;3.40;81.00;;;;;;5015353;28;20045;-80
2021/12/09 04:22:51;;;;;;;4.60;1.70;;;3.40;81.10;;;;;;5014919;28;20018;-80
2021/12/09 04:25:19;;;;;;;3.25;1.73;;;3.30;81.10;;;;;;5015009;28;20063;-80
2021/12/09 04:27:45;;;;;;;8.57;2.08;;;3.40;81.10;;;;;;5014975;28;20022;-80
2021/12/09 04:30:15;;;;;;;4.07;1.95;;;3.30;80.90;;;;;;5015063;28;20034;-80
2021/12/09 04:32:42;;;;;;;5.18;2.65;;;3.30;81.10;;;;;;5015671;28;20518;-80
2021/12/09 04:35:09;;;;;;;4.22;1.73;;;3.30;81.20;;;;;;5013567;28;20083;-79
2021/12/09 04:37:35;;;;;;;2.30;2.10;;;3.20;81.20;;;;;;5013620;28;20034;-80
2021/12/09 04:40:02;;;;;;;5.93;2.25;;;3.20;81.60;;;;;;5013584;28;20030;-80
2021/12/09 04:42:28;;;;;;;3.35;1.88;;;3.20;81.30;;;;;;5013472;28;20026;-80
2021/12/09 04:44:54;;;;;;;4.22;2.85;;;3.20;81.50;;;;;;5024184;28;20017;-80
2021/12/09 04:47:20;;;;;;;3.05;2.05;;;3.20;81.50;;;;;;5052938;28;20059;-80
2021/12/09 04:49:46;;;;;;;3.05;2.17;;;3.20;81.30;;;;;;5054316;28;20055;-80
2021/12/09 04:52:12;;;;;;;3.72;1.73;;;3.20;81.50;;;;;;5036575;28;20061;-80
2021/12/09 04:54:41;;;;;;;2.75;2.15;;;3.10;81.70;;;;;;5047564;28;20029;-80
2021/12/09 04:57:07;;;;;;;9.70;2.47;;;3.10;81.70;;;;;;5034208;28;20033;-80
2021/12/09 04:59:33;;;;;;;3.13;2.15;;;3.10;82.00;;;;;;5032878;28;20022;-80
2021/12/09 05:01:59;;;;;;;7.45;2.75;;;3.10;81.80;;;;;;5021833;28;20048;-80
2021/12/09 05:04:25;;;;;;;4.32;2.00;;;3.20;81.40;;;;;;5014477;28;20056;-80
2021/12/09 05:06:51;;;;;;;8.43;2.33;;;3.20;81.50;;;;;;5014345;28;20433;-80
2021/12/09 05:09:18;;;;;;;6.10;3.17;;;3.00;81.10;;;;;;5016969;28;20037;-80
2021/12/09 05:14:11;;;;;;;6.18;2.28;;;2.90;81.70;;;;;;5038091;28;20068;-80
2021/12/09 05:16:37;;;;;;;3.95;2.30;;;2.90;81.70;;;;;;5037972;28;20025;-80
2021/12/09 05:19:03;;;;;;;7.25;2.08;;;2.90;81.70;;;;;;5034690;28;20381;-80
2021/12/09 05:21:39;;;;;;;5.00;2.00;;;2.90;81.60;;;;;;5018114;28;20084;-80
2021/12/09 05:24:10;;;;;;;5.25;2.17;;;2.90;81.60;;;;;;5018033;28;20057;-80
2021/12/09 05:26:44;;;;;;;10.70;2.78;;;2.80;81.20;;;;;;5017715;28;20089;-80
2021/12/09 05:29:11;;;;;;;3.70;1.98;;;2.80;81.10;;;;;;5017928;28;20038;-80
2021/12/09 05:34:21;;;;;;;2.58;2.30;;;2.80;81.00;;;;;;5018371;28;20044;-80
2021/12/09 05:36:47;;;;;;;6.95;2.80;;;2.70;81.30;;;;;;5017701;28;20396;-80
2021/12/09 05:39:13;;;;;;;6.25;2.45;;;2.70;81.80;;;;;;5022763;28;20542;-80
2021/12/09 05:41:39;;;;;;;3.33;2.40;;;2.60;81.80;;;;;;5019295;28;20029;-83
2021/12/09 05:44:15;;;;;;;8.13;3.17;;;2.70;82.10;;;;;;5020405;28;20021;-80
2021/12/09 05:46:44;;;;;;;8.70;2.67;;;2.70;81.90;;;;;;5033095;28;20064;-78
2021/12/09 05:49:12;;;;;;;5.82;2.22;;;2.70;82.10;;;;;;5036453;28;20013;-81
2021/12/09 05:51:39;;;;;;;5.13;2.22;;;2.70;82.20;;;;;;5035895;28;20105;-83
2021/12/09 05:54:06;;;;;;;4.88;2.70;;;2.70;82.00;;;;;;5025635;28;20112;-80
2021/12/09 05:56:31;;;;;;;1.83;1.67;;;2.80;81.70;;;;;;5017379;28;20030;-78
2021/12/09 05:58:57;;;;;;;7.30;2.50;;;2.80;81.80;;;;;;5016012;28;20033;-78
2021/12/09 06:01:23;;;;;;;5.00;2.33;;;2.80;81.80;;;;;;5017678;28;20484;-78
2021/12/09 06:03:50;;;;;;;4.97;2.65;;;2.80;81.60;;;;;;5015943;28;20099;-84
2021/12/09 06:06:16;;;;;;;7.53;2.50;;;2.80;81.40;;;;;;5017803;28;20022;-81
2021/12/09 06:08:42;;;;;;;8.15;2.92;;;2.80;81.30;;;;;;5018684;28;20032;-80
2021/12/09 06:11:10;;;;;;;4.68;2.70;;;2.80;81.10;;;;;;5017065;28;20034;-86
2021/12/09 06:13:37;;;;;;;9.73;3.05;;;2.80;81.30;;;;;;5016569;28;20021;-80
2021/12/09 06:16:04;;;;;;;6.43;3.20;;;2.70;81.20;;;;;;5019330;28;20030;-78
2021/12/09 06:18:30;;;;;;;5.20;3.67;;;2.70;81.10;;;;;;5015398;28;20061;-77
2021/12/09 06:20:56;;;;;;;5.70;2.92;;;2.70;81.00;;;;;;5024596;28;20484;-78
2021/12/09 06:23:22;;;;;;;9.18;3.30;;;2.70;80.90;;;;;;5036703;28;20021;-78
2021/12/09 06:25:49;;;;;;;7.38;3.10;;;2.70;81.30;;;;;;5017772;28;20026;-78
2021/12/09 06:28:15;;;;;;;8.57;2.55;;;2.60;80.80;;;;;;5015916;28;20117;-78
2021/12/09 06:30:43;;;;;;;10.15;2.92;;;2.60;81.10;;;;;;5016696;28;20529;-78
2021/12/09 06:33:09;;;;;;;4.10;2.80;;;2.60;81.60;;;;;;5016934;28;20075;-78
2021/12/09 06:35:35;;;;;;;6.97;3.15;;;2.70;81.60;;;;;;5018898;28;20067;-79
2021/12/09 06:38:01;;;;;;;3.33;2.65;;;2.70;81.90;;;;;;5036274;28;20060;-78
2021/12/09 06:40:27;;;;;;;6.13;2.95;;;2.80;81.90;;;;;;5036098;28;20068;-79
2021/12/09 06:42:53;;;;;;;5.82;2.05;;;2.80;81.70;;;;;;5022702;28;20036;-78
2021/12/09 06:45:21;;;;;;;1.85;1.67;;;2.80;81.60;;;;;;5043433;28;20826;-78
2021/12/09 06:47:48;;;;;;;9.45;2.67;;;2.70;81.80;;;;;;5043054;28;20040;-81
2021/12/09 06:50:16;;;;;;;14.52;3.72;;;2.70;82.00;;;;;;5019671;28;20030;-79
2021/12/09 06:52:45;;;;;;;7.10;3.40;;;2.70;82.20;;;;;;5028563;28;20103;-81
2021/12/09 06:55:13;;;;;;;4.78;3.00;;;2.70;82.30;;;;;;5026990;28;20033;-81
2021/12/09 06:57:39;;;;;;;6.65;3.03;;;2.70;82.30;;;;;;5017978;28;20400;-81
2021/12/09 07:00:07;;;;;;;8.13;3.50;;;2.70;82.30;;;;;;5016793;28;20529;-81
2021/12/09 07:02:33;;;;;;;6.20;3.35;;;2.90;82.40;;;;;;5026090;28;20500;-82
2021/12/09 07:04:59;;;;;;;7.50;3.38;;;2.90;82.00;;;;;;5025487;28;20018;-81
2021/12/09 07:07:24;;;;;;;6.82;2.92;;;2.90;82.30;;;;;;5022362;28;20034;-81
2021/12/09 07:09:50;;;;;;;4.90;3.25;;;2.90;82.30;;;;;;5025234;28;20033;-81
2021/12/09 07:12:16;;;;;;;6.03;3.28;;;3.00;82.20;;;;;;5027281;28;20021;-81
2021/12/09 07:14:43;;;;;;;6.95;2.80;;;3.00;82.10;;;;;;5023606;28;20104;-81
2021/12/09 07:17:10;;;;;;;5.70;2.70;;;2.90;82.40;;;;;;5022692;28;20029;-81
2021/12/09 07:19:36;;;;;;;6.75;3.15;;;2.80;82.70;;;;;;5024088;28;20033;-81
2021/12/09 07:22:04;;;;;;;7.22;3.10;;;2.90;82.90;;;;;;5025667;28;20028;-81
2021/12/09 07:24:30;;;;;;;4.03;3.03;;;2.90;82.80;;;;;;5024184;28;20025;-81
2021/12/09 07:26:59;;;;;;;9.85;2.75;;;3.00;82.60;;;;;;5026347;28;20021;-81
2021/12/09 07:29:25;;;;;;;9.10;3.00;;;2.90;82.70;;;;;;5021664;28;20026;-81
2021/12/09 07:31:51;;;;;;;7.03;2.90;;;2.90;82.70;;;;;;5024021;28;20025;-81
2021/12/09 07:34:17;;;;;;;6.13;3.17;;;2.90;82.80;;;;;;5025140;28;20079;-81
2021/12/09 07:36:43;;;;;;;6.78;3.53;;;2.90;83.10;;;;;;5024983;28;20026;-79
2021/12/09 07:39:09;;;;;;;8.63;4.35;;;2.80;83.30;;;;;;5019448;28;20025;-79
2021/12/09 07:41:35;;;;;;;8.63;4.03;;;3.00;83.20;;;;;;5030192;28;20033;-80
2021/12/09 07:44:02;;;;;;;5.78;3.85;;;3.00;83.10;;;;;;5032091;28;20030;-80
2021/12/09 07:46:37;;;;;;;9.00;4.35;;;3.00;83.00;;;;;;5038974;28;20076;-81
2021/12/09 07:49:06;;;;;;;8.80;4.00;;;3.00;83.00;;;;;;5033499;28;20044;-80
2021/12/09 07:51:33;;;;;;;5.80;3.67;;;3.10;83.00;;;;;;5025287;28;20473;-80
2021/12/09 07:54:01;;;;;;;10.68;3.85;;;3.10;83.00;;;;;;5013682;28;20040;-80
2021/12/09 07:56:26;;;;;;;6.68;3.47;;;3.20;82.80;;;;;;5015228;28;20354;-80
2021/12/09 07:58:52;;;;;;;11.43;3.83;;;3.20;82.50;;;;;;5013523;28;20088;-80
2021/12/09 08:01:18;;;;;;;6.45;4.47;;;3.30;82.30;;;;;;5015126;28;20030;-80
2021/12/09 08:03:44;;;;;;;11.00;7.10;;;3.30;82.10;;;;;;5013747;28;20038;-80
2021/12/09 08:06:10;;;;;;;13.23;6.60;;;3.30;82.00;;;;;;5015077;28;20021;-81
2021/12/09 08:08:36;;;;;;;9.63;4.97;;;3.40;81.80;;;;;;5013827;28;20026;-81
2021/12/09 08:11:02;;;;;;;11.20;5.75;;;3.30;81.70;;;;;;5015259;28;20408;-80
2021/12/09 08:13:27;;;;;;;11.57;6.60;;;3.40;81.90;;;;;;5013590;28;20504;-80
2021/12/09 08:15:54;;;;;;;14.98;7.45;;;3.30;81.80;;;;;;5014962;28;20108;-80
2021/12/09 08:20:47;;;;;;;12.38;5.38;;;3.40;82.40;;;;;;5014961;28;20096;-80
2021/12/09 08:23:13;;;;;;;10.30;3.97;;;3.30;82.40;;;;;;5014866;28;20038;-80
2021/12/09 08:25:40;;;;;;;11.10;4.65;;;3.40;82.30;;;;;;5014266;28;20030;-80
2021/12/09 08:28:05;;;;;;;11.95;4.47;;;3.40;82.40;;;;;;5017729;28;20026;-80
2021/12/09 08:30:32;;;;;;;8.60;4.15;;;3.40;82.50;;;;;;5014871;28;20088;-80
2021/12/09 08:32:57;;;;;;;15.45;4.30;;;3.50;82.60;;;;;;5014746;28;20046;-81
2021/12/09 08:35:23;;;;;;;7.85;4.45;;;3.50;82.40;;;;;;5014656;28;20515;-81
2021/12/09 08:37:51;;;;;;;9.68;4.43;;;3.50;82.60;;;;;;5034485;28;20030;-81
2021/12/09 08:40:18;;;;;;;11.00;4.60;;;3.60;82.70;;;;;;5034864;28;20104;-81
2021/12/09 08:42:44;;;;;;;10.90;4.30;;;3.60;82.50;;;;;;5036006;28;20029;-81
2021/12/09 08:45:11;;;;;;;7.15;4.18;;;3.60;82.70;;;;;;5031886;28;20468;-81
2021/12/09 08:47:39;;;;;;;5.43;4.47;;;3.70;82.60;;;;;;5026024;28;20054;-81
2021/12/09 08:50:08;;;;;;;8.70;3.90;;;3.70;82.40;;;;;;5038258;28;20033;-81
2021/12/09 08:52:34;;;;;;;9.52;3.90;;;3.80;82.20;;;;;;5037993;28;20504;-81
2021/12/09 08:55:00;;;;;;;9.07;3.92;;;3.90;82.00;;;;;;5038212;28;20026;-81
2021/12/09 08:57:26;;;;;;;13.35;4.47;;;3.90;81.90;;;;;;5034709;28;20463;-81
2021/12/09 08:59:52;;;;;;;7.28;4.45;;;4.10;81.80;;;;;;5018344;28;20030;-81
2021/12/09 09:02:18;;;;;;;7.75;4.13;;;4.10;81.70;;;;;;5018290;28;20496;-81
2021/12/09 09:04:45;;;;;;;8.00;4.32;;;4.10;81.60;;;;;;5018134;28;20101;-81
2021/12/09 09:07:11;;;;;;;9.77;3.50;;;4.20;81.60;;;;;;5018368;28;20021;-81
2021/12/09 09:09:39;;;;;;;9.07;3.95;;;4.20;81.20;;;;;;5017883;28;20026;-81
2021/12/09 09:12:08;;;;;;;9.70;3.30;;;4.20;81.20;;;;;;5017113;28;20097;-81
2021/12/09 09:14:34;;;;;;;6.07;3.35;;;4.20;81.30;;;;;;5017951;28;20061;-81
2021/12/09 09:17:00;;;;;;;11.13;4.65;;;4.30;81.60;;;;;;5033165;28;20084;-81
2021/12/09 09:19:26;;;;;;;10.48;6.40;;;4.30;81.60;;;;;;5018014;28;20033;-81
2021/12/09 09:21:52;;;;;;;16.15;6.20;;;4.40;81.20;;;;;;5018128;28;20550;-81
2021/12/09 09:24:19;;;;;;;16.95;6.35;;;4.50;80.70;;;;;;5016698;28;20176;-81
2021/12/09 09:26:45;;;;;;;13.48;6.53;;;4.60;80.70;;;;;;5017543;28;20037;-81
2021/12/09 09:29:11;;;;;;;14.30;6.43;;;4.70;80.70;;;;;;5017517;28;20026;-81
2021/12/09 09:31:39;;;;;;;11.95;7.35;;;4.80;80.10;;;;;;5017619;28;20534;-81
2021/12/09 09:34:05;;;;;;;10.57;3.78;;;4.80;80.40;;;;;;5018113;28;20026;-81
2021/12/09 09:36:32;;;;;;;6.18;3.65;;;4.80;80.60;;;;;;5017612;28;20052;-81
2021/12/09 09:39:06;;;;;;;14.32;4.55;;;4.80;80.50;;;;;;5017509;28;20141;-81
2021/12/09 09:41:34;;;;;;;9.43;4.43;;;4.90;80.50;;;;;;5017664;28;20074;-81
2021/12/09 09:44:12;;;;;;;6.53;4.60;;;5.00;80.20;;;;;;5017180;28;20480;-81
2021/12/09 09:46:37;;;;;;;12.30;5.22;;;5.10;80.40;;;;;;5054350;28;20052;-81
2021/12/09 09:49:05;;;;;;;9.82;6.53;;;5.20;80.30;;;;;;5037084;28;20018;-81
2021/12/09 09:51:32;;;;;;;9.13;6.22;;;5.20;79.90;;;;;;5017365;28;20037;-81
2021/12/09 09:54:00;;;;;;;8.68;5.03;;;5.30;80.00;;;;;;5016313;28;20431;-81
2021/12/09 09:56:26;;;;;;;7.35;4.53;;;5.30;79.80;;;;;;5017356;28;20078;-81
2021/12/09 09:59:12;;;;;;;9.68;5.03;;;5.30;80.10;;;;;;5017117;28;20582;-81
2021/12/09 10:01:40;;;;;;;6.90;4.45;;;5.30;79.40;;;;;;5017643;28;20164;-81
2021/12/09 10:04:21;;;;;;;13.80;4.78;;;5.40;79.30;;;;;;5016513;28;20472;-82
2021/12/09 10:06:47;;;;;;;12.55;5.28;;;5.40;79.20;;;;;;5017045;28;20120;-81
2021/12/09 10:09:15;;;;;;;10.07;4.28;;;5.40;79.40;;;;;;5017698;28;20101;-82
2021/12/09 10:11:42;;;;;;;13.10;5.22;;;5.50;79.50;;;;;;5017042;28;20021;-81
2021/12/09 10:14:17;;;;;;;10.98;5.45;;;5.50;79.40;;;;;;5017180;28;20030;-81
2021/12/09 10:16:45;;;;;;;13.52;7.35;;;5.60;79.40;;;;;;5016847;28;20457;-82
2021/12/09 10:19:22;;;;;;;9.02;6.78;;;5.70;79.30;;;;;;5016789;28;20042;-81
2021/12/09 10:21:48;;;;;;;9.60;5.72;;;5.80;79.20;;;;;;5016386;28;20068;-81
2021/12/09 10:24:16;;;;;;;10.95;6.35;;;5.80;79.30;;;;;;5016479;28;20113;-81
2021/12/09 10:26:47;;;;;;;10.90;5.53;;;5.90;78.80;;;;;;5016638;28;20594;-82
2021/12/09 10:29:27;;;;;;;9.73;5.60;;;6.00;79.00;;;;;;5017031;28;20032;-81
2021/12/09 10:31:57;;;;;;;10.50;5.45;;;6.00;79.20;;;;;;5016674;28;20034;-81
2021/12/09 10:34:35;;;;;;;12.00;6.22;;;6.10;79.10;;;;;;5016534;28;20033;-81
2021/12/09 10:37:06;;;;;;;11.40;6.28;;;6.10;79.20;;;;;;5015204;28;20038;-81
2021/12/09 10:39:33;;;;;;;;;;;6.20;79.10;;;;;;5030033;28;20060;-81
2021/12/09 10:42:04;;;;;;;10.18;6.32;;;6.30;79.30;;;;;;5035792;28;20347;-82
2021/12/09 10:44:38;;;;;;;11.70;6.13;;;6.20;78.40;;;;;;5023856;28;20021;-82
2021/12/09 10:47:14;;;;;;;11.80;5.80;;;6.20;78.90;;;;;;5026496;28;20052;-82
2021/12/09 10:53:18;;;;;;;15.95;6.22;;;6.30;78.40;;;;;;4993510;28;20073;-80
2021/12/09 10:55:46;;;;;;;18.33;6.90;;;6.30;79.10;;;;;;5016494;28;20116;-81
2021/12/09 10:58:14;;;;;;;14.23;6.82;;;6.40;78.90;;;;;;5034335;28;20025;-82
2021/12/09 11:00:56;;;;;;;13.05;7.32;;;6.30;79.10;;;;;;5035873;28;20508;-82
2021/12/09 11:03:32;;;;;;;13.45;5.20;;;6.50;79.10;;;;;;5018381;28;20021;-81
2021/12/09 11:06:05;;;;;;;10.68;5.43;;;6.60;79.10;;;;;;5015658;28;20109;-82
2021/12/09 11:08:55;;;;;;;9.98;5.72;;;6.70;78.70;;;;;;5015922;28;20030;-82
2021/12/09 11:11:33;;;;;;;9.45;5.57;;;6.60;78.90;;;;;;5015676;28;20412;-82
2021/12/09 11:14:13;;;;;;;10.95;5.05;;;6.70;79.40;;;;;;5015937;28;20080;-82
2021/12/09 11:16:50;;;;;;;10.23;6.05;;;6.70;79.50;;;;;;5015760;28;20022;-82
2021/12/09 11:19:48;;;;;;;10.57;5.72;;;6.70;79.70;;;;;;5015783;28;20033;-82
2021/12/09 11:22:17;;;;;;;7.93;4.40;;;6.80;80.00;;;;;;5015936;28;20501;-82
2021/12/09 11:24:47;;;;;;;10.27;4.80;;;6.70;80.30;;;;;;5014349;28;20036;-82
2021/12/09 11:27:25;;;;;;;10.17;5.50;;;6.80;80.60;;;;;;5015590;28;20014;-82
2021/12/09 11:29:55;;;;;;;11.88;5.53;;;6.80;80.80;;;;;;5016025;28;20629;-82
2021/12/09 11:32:35;;;;;;;13.75;5.30;;;6.90;80.60;;;;;;5015642;28;20121;-81
2021/12/09 11:35:16;;;;;;;13.25;4.82;;;7.10;80.50;;;;;;5015481;28;20030;-82
2021/12/09 11:40:33;;;;;;;7.35;4.28;;;7.30;80.70;;;;;;5015826;28;20056;-82
2021/12/09 11:43:02;;;;;;;6.00;3.17;;;7.30;80.60;;;;;;5019977;28;20514;-82
2021/12/09 11:45:34;;;;;;;7.85;3.90;;;7.40;81.10;;;;;;5043935;28;20080;-82
2021/12/09 11:48:02;;;;;;;13.02;3.45;;;7.50;80.70;;;;;;5043493;28;20025;-82
2021/12/09 11:50:32;;;;;;;6.53;2.85;;;7.60;80.90;;;;;;5014963;28;20360;-82
2021/12/09 11:53:02;;;;;;;5.70;2.55;;;7.60;80.90;;;;;;5015551;28;20481;-82
2021/12/09 11:55:36;;;;;;;4.28;1.88;;;7.70;80.90;;;;;;5015386;28;20499;-82
2021/12/09 11:58:15;;;;;;;7.05;2.47;;;7.70;80.80;;;;;;5015582;28;20029;-82
2021/12/09 12:11:55;;;;;;;6.18;2.78;;;8.00;81.30;;;;;;5015335;28;20040;-82
2021/12/09 12:14:37;;;;;;;5.05;2.50;;;8.10;81.60;;;;;;5015008;28;20022;-82
2021/12/09 12:17:11;;;;;;;8.93;2.78;;;8.20;81.60;;;;;;5038185;28;20037;-82
2021/12/09 12:19:59;;;;;;;5.55;2.20;;;8.20;82.10;;;;;;5038962;28;20029;-82
2021/12/09 12:39:28;;;;;;;;;;;8.20;85.10;;;;;;5022510;28;20030;-82
2021/12/09 12:42:08;;;;;;;12.30;2.80;;;8.10;85.50;;;;;;5018721;28;19978;-82
2021/12/09 12:44:34;;;;;;;6.55;2.40;;;8.20;85.80;;;;;;5028580;28;20153;-82
2021/12/09 12:47:15;;;;;;;8.73;2.45;;;8.20;85.70;;;;;;5056652;28;20072;-82
2021/12/09 12:49:46;;;;;;;5.45;2.90;;;8.20;85.90;;;;;;5058467;28;20079;-82
2021/12/09 12:52:26;;;;;;;2.67;2.00;;;8.20;86.40;;;;;;5034325;28;20057;-81
2021/12/09 12:54:59;;;;;;;6.20;2.65;;;8.20;86.30;;;;;;5017403;28;20029;-82
2021/12/09 12:57:35;;;;;;;10.43;3.17;;;8.10;86.70;;;;;;5018625;28;20029;-82
2021/12/09 13:00:07;;;;;;;8.60;3.13;;;8.10;87.10;;;;;;5018681;28;20108;-82
2021/12/09 13:16:11;;;;;;;8.93;3.92;;;8.10;88.50;;;;;;5018052;28;20120;-83
2021/12/09 13:21:47;;;;;;;13.38;3.90;;;8.20;88.70;;;;;;5017905;28;20036;-82
2021/12/09 13:24:23;;;;;;;5.55;3.47;;;8.20;88.40;;;;;;5017889;28;20026;-83
2021/12/09 13:27:23;;;;;;;6.20;2.88;;;8.20;88.60;;;;;;5017806;28;20072;-83
2021/12/09 13:49:10;;;;;;;3.63;2.35;;;8.20;89.60;;;;;;5039364;28;20046;-83
2021/12/09 13:54:27;;;;;;;6.75;3.08;;;8.20;89.70;;;;;;5017675;28;20037;-83
2021/12/09 13:57:11;;;;;;;6.27;3.60;;;8.20;89.60;;;;;;5017781;28;20037;-83
2021/12/09 13:59:37;;;;;;;7.30;3.50;;;8.20;89.90;;;;;;5016858;28;20647;-83
2021/12/09 14:02:16;;;;;;;8.48;4.10;;;8.20;90.10;;;;;;5017337;28;20058;-83
2021/12/09 14:04:43;;;;;;;7.77;4.80;;;8.20;90.20;;;;;;5016210;28;20121;-83
2021/12/09 14:07:13;;;;;;;4.57;3.70;;;8.20;90.20;;;;;;5017032;28;20263;-83
2021/12/09 14:09:42;;;;;;;6.82;3.15;;;8.20;90.20;;;;;;5016775;28;20446;-83
2021/12/09 14:12:08;;;;;;;5.28;3.28;;;8.20;90.20;;;;;;5017013;28;20036;-84
2021/12/09 14:14:57;;;;;;;6.65;3.67;;;8.20;90.00;;;;;;5016607;28;20023;-83
2021/12/09 14:17:25;;;;;;;9.95;4.28;;;8.20;90.30;;;;;;5016892;28;20030;-83
2021/12/09 14:20:06;;;;;;;7.90;3.95;;;8.20;89.90;;;;;;5017279;28;20496;-83
2021/12/09 14:22:37;;;;;;;9.13;5.28;;;8.20;90.20;;;;;;5016515;28;20080;-83
2021/12/09 14:25:28;;;;;;;5.95;4.05;;;8.30;90.20;;;;;;5016804;28;20022;-83